createdAt,value
2023-01-27T00:00:37.510Z,18.10
2023-01-27T00:03:04.075Z,18.97
2023-01-27T00:05:30.583Z,16.70
2023-01-27T00:07:57.315Z,16.13
2023-01-27T00:10:24.755Z,14.80
2023-01-27T00:12:52.854Z,16.17
2023-01-27T00:15:19.459Z,16.33
2023-01-27T00:17:45.944Z,15.93
2023-01-27T00:20:13.034Z,15.73
2023-01-27T00:22:39.673Z,17.10
2023-01-27T00:25:06.954Z,17.87
2023-01-27T00:27:36.304Z,18.00
2023-01-27T00:30:05.395Z,18.27
2023-01-27T00:32:32.085Z,16.83
2023-01-27T00:34:58.609Z,16.63
2023-01-27T00:37:25.164Z,16.93
2023-01-27T00:39:51.690Z,15.73
2023-01-27T00:42:18.189Z,15.67
2023-01-27T00:44:44.698Z,17.90
2023-01-27T00:47:12.554Z,17.40
2023-01-27T00:49:39.028Z,18.00
2023-01-27T00:52:05.518Z,19.33
2023-01-27T00:54:31.998Z,18.63
2023-01-27T00:56:58.521Z,17.80
2023-01-27T00:59:24.999Z,19.00
2023-01-27T01:01:51.542Z,19.60
2023-01-27T01:04:19.423Z,17.93
2023-01-27T01:06:45.945Z,16.40
2023-01-27T01:09:12.460Z,19.57
2023-01-27T01:11:38.978Z,15.37
2023-01-27T01:14:05.503Z,17.30
2023-01-27T01:16:31.979Z,17.53
2023-01-27T01:18:58.503Z,16.20
2023-01-27T01:21:26.374Z,17.90
2023-01-27T01:23:53.015Z,17.27
2023-01-27T01:26:19.566Z,15.20
2023-01-27T01:28:46.759Z,17.00
2023-01-27T01:31:17.433Z,14.80
2023-01-27T01:33:44.668Z,16.73
2023-01-27T01:36:12.784Z,15.07
2023-01-27T01:38:41.071Z,16.93
2023-01-27T01:41:10.646Z,16.37
2023-01-27T01:43:37.214Z,14.13
2023-01-27T01:46:04.038Z,18.70
2023-01-27T01:48:35.719Z,17.43
2023-01-27T01:51:08.776Z,14.70
2023-01-27T01:53:41.649Z,15.97
2023-01-27T01:56:14.332Z,16.13
2023-01-27T02:01:10.186Z,15.87
2023-01-27T02:03:41.612Z,14.00
2023-01-27T02:06:09.375Z,14.67
2023-01-27T02:08:38.725Z,17.13
2023-01-27T02:11:06.715Z,14.27
2023-01-27T02:13:33.217Z,14.70
2023-01-27T02:15:59.901Z,14.40
2023-01-27T02:18:27.139Z,15.83
2023-01-27T02:20:54.270Z,16.20
2023-01-27T02:23:30.917Z,14.83
2023-01-27T02:26:02.983Z,14.07
2023-01-27T02:28:30.746Z,12.47
2023-01-27T02:30:58.037Z,12.87
2023-01-27T02:33:24.766Z,14.80
2023-01-27T02:35:58.571Z,13.73
2023-01-27T02:38:27.306Z,14.73
2023-01-27T02:40:57.931Z,13.40
2023-01-27T02:43:25.940Z,13.90
2023-01-27T02:45:52.597Z,14.07
2023-01-27T02:48:19.132Z,13.03
2023-01-27T02:50:45.654Z,13.73
2023-01-27T02:53:12.192Z,13.33
2023-01-27T02:55:38.700Z,12.53
2023-01-27T02:58:05.228Z,14.97
2023-01-27T03:00:33.542Z,14.37
2023-01-27T03:03:00.052Z,11.17
2023-01-27T03:05:26.565Z,11.80
2023-01-27T03:07:53.182Z,13.37
2023-01-27T03:10:19.787Z,13.77
2023-01-27T03:12:46.310Z,15.30
2023-01-27T03:15:13.121Z,11.93
2023-01-27T03:17:41.170Z,11.93
2023-01-27T03:20:08.965Z,11.97
2023-01-27T03:22:35.526Z,12.37
2023-01-27T03:25:02.014Z,15.53
2023-01-27T03:27:28.523Z,13.00
2023-01-27T03:29:55.038Z,11.37
2023-01-27T03:32:21.818Z,13.10
2023-01-27T03:34:49.702Z,13.43
2023-01-27T03:37:16.244Z,13.00
2023-01-27T03:39:42.902Z,11.03
2023-01-27T03:42:09.468Z,11.70
2023-01-27T03:44:35.973Z,12.53
2023-01-27T03:47:02.537Z,16.23
2023-01-27T03:49:29.071Z,15.80
2023-01-27T03:51:56.978Z,16.50
2023-01-27T03:54:23.469Z,15.90
2023-01-27T03:56:49.973Z,15.73
2023-01-27T03:59:16.467Z,15.17
2023-01-27T04:01:43.000Z,11.63
2023-01-27T04:04:10.167Z,13.67
2023-01-27T04:06:39.240Z,11.43
2023-01-27T04:09:08.548Z,9.80
2023-01-27T04:11:35.346Z,8.40
2023-01-27T04:14:01.863Z,7.27
2023-01-27T04:16:28.671Z,7.03
2023-01-27T04:18:55.235Z,7.47
2023-01-27T04:21:22.130Z,7.90
2023-01-27T04:23:48.695Z,8.27
2023-01-27T04:26:16.622Z,8.13
2023-01-27T04:28:44.484Z,9.67
2023-01-27T04:31:11.552Z,9.70
2023-01-27T04:33:38.165Z,10.97
2023-01-27T04:36:05.107Z,8.77
2023-01-27T04:38:31.806Z,8.17
2023-01-27T04:40:58.493Z,7.37
2023-01-27T04:43:26.372Z,8.23
2023-01-27T04:45:52.890Z,8.23
2023-01-27T04:48:19.437Z,8.17
2023-01-27T04:50:45.946Z,8.37
2023-01-27T04:53:12.476Z,5.53
2023-01-27T04:55:39.035Z,6.43
2023-01-27T04:58:05.549Z,6.17
2023-01-27T05:00:33.380Z,5.67
2023-01-27T05:02:59.948Z,5.30
2023-01-27T05:05:26.514Z,4.83
2023-01-27T05:07:53.045Z,4.30
2023-01-27T05:10:19.702Z,4.00
2023-01-27T05:12:46.243Z,5.33
2023-01-27T05:15:12.999Z,5.10
2023-01-27T05:17:40.994Z,6.00
2023-01-27T05:20:08.238Z,7.20
2023-01-27T05:22:34.708Z,7.07
2023-01-27T05:25:01.275Z,6.33
2023-01-27T05:27:27.842Z,7.23
2023-01-27T05:29:54.360Z,8.20
2023-01-27T05:32:20.922Z,10.67
2023-01-27T05:34:48.826Z,9.13
2023-01-27T05:37:15.314Z,6.77
2023-01-27T05:39:41.790Z,7.40
2023-01-27T05:42:08.386Z,5.87
2023-01-27T05:44:34.904Z,7.97
2023-01-27T05:47:01.448Z,8.57
2023-01-27T05:49:28.137Z,6.53
2023-01-27T05:51:56.005Z,8.80
2023-01-27T05:54:22.526Z,8.93
2023-01-27T05:56:49.023Z,11.43
2023-01-27T05:59:15.669Z,8.63
2023-01-27T06:01:42.203Z,9.93
2023-01-27T06:04:09.761Z,9.60
2023-01-27T06:06:36.378Z,9.90
2023-01-27T06:09:04.398Z,9.30
2023-01-27T06:11:30.905Z,9.27
2023-01-27T06:13:57.687Z,9.60
2023-01-27T06:16:24.560Z,11.40
2023-01-27T06:18:51.229Z,13.53
2023-01-27T06:21:18.296Z,13.00
2023-01-27T06:23:44.802Z,11.87
2023-01-27T06:26:14.293Z,11.43
2023-01-27T06:28:40.817Z,11.80
2023-01-27T06:31:08.061Z,11.80
2023-01-27T06:33:34.881Z,12.33
2023-01-27T06:36:03.152Z,10.53
2023-01-27T06:38:29.658Z,9.50
2023-01-27T06:40:56.191Z,10.07
2023-01-27T06:43:24.093Z,8.40
2023-01-27T06:45:50.860Z,10.73
2023-01-27T06:48:17.453Z,9.07
2023-01-27T06:50:43.955Z,11.27
2023-01-27T06:53:10.665Z,9.73
2023-01-27T06:55:38.051Z,8.67
2023-01-27T06:58:04.602Z,10.53
2023-01-27T07:00:32.614Z,8.63
2023-01-27T07:02:59.162Z,9.17
2023-01-27T07:05:25.810Z,9.97
2023-01-27T07:07:52.335Z,9.03
2023-01-27T07:10:19.333Z,9.47
2023-01-27T07:12:46.054Z,8.67
2023-01-27T07:15:13.027Z,8.20
2023-01-27T07:17:41.202Z,9.57
2023-01-27T07:20:11.381Z,8.07
2023-01-27T07:22:38.408Z,8.97
2023-01-27T07:25:05.872Z,9.80
2023-01-27T07:27:32.627Z,10.90
2023-01-27T07:29:59.133Z,10.93
2023-01-27T07:32:27.380Z,16.77
2023-01-27T07:34:56.325Z,17.20
2023-01-27T07:37:23.009Z,13.80
2023-01-27T07:39:49.594Z,11.73
2023-01-27T07:42:16.149Z,12.03
2023-01-27T07:44:42.657Z,12.43
2023-01-27T07:47:09.203Z,7.80
2023-01-27T07:49:35.740Z,8.53
2023-01-27T07:52:03.852Z,7.97
2023-01-27T07:54:30.390Z,7.37
2023-01-27T07:56:59.401Z,7.70
2023-01-27T07:59:25.901Z,8.17
2023-01-27T08:01:52.435Z,8.30
2023-01-27T08:04:18.995Z,9.13
2023-01-27T08:06:45.562Z,7.30
2023-01-27T08:09:13.402Z,7.53
2023-01-27T08:11:39.898Z,7.53
2023-01-27T08:14:06.399Z,8.37
2023-01-27T08:16:32.918Z,10.30
2023-01-27T08:18:59.398Z,7.80
2023-01-27T08:21:25.923Z,8.30
2023-01-27T08:23:53.684Z,7.33
2023-01-27T08:26:21.572Z,7.97
2023-01-27T08:28:48.042Z,7.27
2023-01-27T08:31:16.268Z,10.83
2023-01-27T08:33:44.772Z,11.00
2023-01-27T08:36:13.762Z,9.10
2023-01-27T08:38:40.658Z,6.93
2023-01-27T08:41:09.211Z,7.37
2023-01-27T08:43:37.463Z,7.33
2023-01-27T08:46:04.794Z,6.63
2023-01-27T08:48:32.119Z,8.03
2023-01-27T08:50:59.592Z,8.83
2023-01-27T08:53:27.078Z,8.97
2023-01-27T08:55:57.216Z,8.30
2023-01-27T08:58:23.926Z,8.93
2023-01-27T09:00:51.801Z,8.73
2023-01-27T09:03:18.851Z,8.40
2023-01-27T09:05:46.647Z,10.57
2023-01-27T09:08:13.295Z,8.90
2023-01-27T09:10:40.822Z,7.60
2023-01-27T09:13:07.678Z,7.13
2023-01-27T09:15:35.315Z,8.77
2023-01-27T09:18:06.184Z,7.13
2023-01-27T09:20:33.067Z,6.20
2023-01-27T09:22:59.824Z,7.97
2023-01-27T09:25:26.356Z,8.03
2023-01-27T09:27:54.576Z,7.37
2023-01-27T09:30:22.121Z,6.30
2023-01-27T09:32:48.630Z,5.77
2023-01-27T09:35:16.997Z,7.50
2023-01-27T09:37:48.803Z,5.60
2023-01-27T09:40:29.584Z,6.73
2023-01-27T09:43:21.037Z,5.97
2023-01-27T09:46:02.405Z,6.73
2023-01-27T09:48:47.663Z,5.50
2023-01-27T09:51:20.145Z,5.67
2023-01-27T09:54:07.798Z,5.13
2023-01-27T09:56:44.479Z,5.37
2023-01-27T09:59:22.074Z,5.00
2023-01-27T10:01:56.873Z,4.93
2023-01-27T10:04:40.109Z,6.67
2023-01-27T10:07:39.159Z,5.30
2023-01-27T10:10:26.222Z,4.87
2023-01-27T10:13:07.850Z,5.70
2023-01-27T10:15:47.257Z,4.83
2023-01-27T10:18:29.320Z,4.00
2023-01-27T10:21:03.185Z,4.10
2023-01-27T10:23:39.153Z,4.13
2023-01-27T10:26:19.946Z,3.27
2023-01-27T10:28:50.341Z,3.43
2023-01-27T10:31:23.564Z,2.93
2023-01-27T10:33:52.521Z,3.17
2023-01-27T10:36:26.668Z,4.23
2023-01-27T10:39:03.061Z,3.30
2023-01-27T10:41:37.300Z,3.77
2023-01-27T10:44:21.001Z,2.80
2023-01-27T10:46:59.044Z,2.67
2023-01-27T10:49:30.840Z,2.57
2023-01-27T10:52:01.166Z,3.47
2023-01-27T10:54:34.198Z,2.20
2023-01-27T10:57:08.420Z,2.47
2023-01-27T10:59:40.670Z,2.60
2023-01-27T11:02:15.869Z,2.20
2023-01-27T11:04:46.465Z,2.63
2023-01-27T11:07:16.718Z,2.47
2023-01-27T11:09:48.872Z,2.73
2023-01-27T11:12:23.458Z,2.43
2023-01-27T11:14:51.975Z,3.20
2023-01-27T11:17:27.534Z,2.10
2023-01-27T11:20:00.448Z,2.33
2023-01-27T11:22:33.361Z,2.17
2023-01-27T11:25:05.720Z,2.60
2023-01-27T11:27:59.873Z,3.03
2023-01-27T11:30:33.727Z,2.03
2023-01-27T11:33:06.309Z,2.10
2023-01-27T11:35:32.921Z,2.13
2023-01-27T11:38:14.451Z,2.83
2023-01-27T11:40:44.637Z,1.57
2023-01-27T11:43:16.191Z,1.80
2023-01-27T11:45:43.620Z,1.50
2023-01-27T11:48:13.622Z,1.90
2023-01-27T11:50:41.726Z,1.50
2023-01-27T11:53:14.597Z,1.27
2023-01-27T11:55:44.829Z,0.80
2023-01-27T11:58:17.269Z,1.20
2023-01-27T12:00:46.684Z,1.60
2023-01-27T12:03:18.786Z,1.80
2023-01-27T12:05:49.116Z,1.30
2023-01-27T12:08:36.786Z,1.50
2023-01-27T12:11:18.364Z,1.47
2023-01-27T12:13:56.947Z,1.70
2023-01-27T12:16:29.671Z,1.63
2023-01-27T12:19:00.633Z,1.50
2023-01-27T12:21:46.679Z,2.00
2023-01-27T12:24:22.546Z,2.07
2023-01-27T12:26:52.015Z,1.70
2023-01-27T12:29:24.563Z,2.13
2023-01-27T12:31:54.059Z,1.47
2023-01-27T12:34:26.864Z,1.83
2023-01-27T12:36:54.634Z,1.40
2023-01-27T12:39:28.585Z,1.10
2023-01-27T12:41:55.096Z,1.23
2023-01-27T12:44:22.991Z,2.13
2023-01-27T12:46:59.308Z,2.97
2023-01-27T12:49:31.686Z,1.40
2023-01-27T12:52:02.231Z,1.30
2023-01-27T12:54:31.099Z,1.20
2023-01-27T12:57:02.709Z,1.47
2023-01-27T12:59:31.500Z,1.00
2023-01-27T13:02:01.060Z,1.10
2023-01-27T13:04:28.737Z,1.90
2023-01-27T13:06:57.872Z,1.43
2023-01-27T13:09:28.968Z,1.10
2023-01-27T13:11:57.040Z,0.93
2023-01-27T13:14:23.661Z,0.97
2023-01-27T13:16:53.125Z,1.10
2023-01-27T13:19:20.033Z,1.27
2023-01-27T13:21:50.228Z,1.30
2023-01-27T13:24:24.418Z,1.60
2023-01-27T13:26:52.113Z,1.77
2023-01-27T13:29:23.303Z,1.77
2023-01-27T13:31:55.849Z,1.60
2023-01-27T13:34:27.439Z,1.40
2023-01-27T13:36:59.332Z,1.67
2023-01-27T13:39:40.569Z,1.20
2023-01-27T13:42:13.452Z,1.37
2023-01-27T13:44:44.894Z,1.27
2023-01-27T13:47:20.255Z,1.67
2023-01-27T13:49:50.446Z,1.10
2023-01-27T13:52:17.004Z,1.60
2023-01-27T13:54:43.568Z,1.20
2023-01-27T13:57:53.775Z,1.43
2023-01-27T14:00:25.809Z,2.50
2023-01-27T14:03:16.258Z,1.60
2023-01-27T14:06:05.440Z,1.40
2023-01-27T14:08:44.823Z,1.40
2023-01-27T14:11:22.742Z,1.30
2023-01-27T14:14:14.878Z,1.27
2023-01-27T14:16:59.137Z,1.10
2023-01-27T14:19:37.415Z,1.80
2023-01-27T14:22:13.755Z,1.07
2023-01-27T14:24:47.859Z,1.20
2023-01-27T14:27:19.521Z,1.80
2023-01-27T14:29:52.076Z,1.73
2023-01-27T14:32:27.157Z,1.10
2023-01-27T14:35:20.126Z,1.83
2023-01-27T14:37:55.700Z,1.67
2023-01-27T14:40:26.233Z,1.40
2023-01-27T14:43:10.200Z,1.30
2023-01-27T14:45:39.811Z,0.90
2023-01-27T14:48:16.835Z,0.93
2023-01-27T14:50:52.246Z,0.90
2023-01-27T14:53:31.409Z,0.90
2023-01-27T14:56:06.744Z,0.80
2023-01-27T14:58:42.255Z,1.10
2023-01-27T15:01:19.350Z,1.17
2023-01-27T15:04:05.418Z,0.90
2023-01-27T15:06:43.922Z,1.67
2023-01-27T15:09:24.269Z,4.63
2023-01-27T15:12:07.104Z,0.90
2023-01-27T15:14:58.834Z,1.50
2023-01-27T15:17:38.799Z,5.03
2023-01-27T15:20:26.095Z,2.33
2023-01-27T15:23:07.118Z,2.37
2023-01-27T15:25:37.683Z,2.80
2023-01-27T15:28:05.194Z,2.53
2023-01-27T15:30:33.383Z,1.30
2023-01-27T15:33:00.407Z,1.13
2023-01-27T15:35:38.132Z,1.10
2023-01-27T15:38:34.270Z,0.80
2023-01-27T15:41:12.117Z,0.77
2023-01-27T15:43:40.776Z,1.47
2023-01-27T15:46:28.347Z,1.27
2023-01-27T15:48:56.005Z,1.27
2023-01-27T15:51:23.852Z,2.13
2023-01-27T15:53:54.591Z,1.10
2023-01-27T15:56:39.069Z,1.10
2023-01-27T15:59:11.850Z,0.93
2023-01-27T16:01:38.380Z,0.97
2023-01-27T16:04:07.787Z,1.20
2023-01-27T16:06:35.149Z,1.27
2023-01-27T16:09:06.423Z,2.10
2023-01-27T16:11:42.381Z,1.40
2023-01-27T16:14:48.787Z,1.30
2023-01-27T16:17:25.431Z,1.20
2023-01-27T16:20:10.812Z,1.93
2023-01-27T16:22:40.386Z,1.40
2023-01-27T16:25:24.425Z,1.10
2023-01-27T16:27:56.973Z,1.03
2023-01-27T16:30:26.464Z,1.37
2023-01-27T16:33:01.471Z,1.57
2023-01-27T16:35:29.100Z,4.93
2023-01-27T16:38:04.156Z,4.23
2023-01-27T16:40:34.462Z,5.77
2023-01-27T16:43:04.064Z,4.10
2023-01-27T16:45:41.302Z,2.90
2023-01-27T16:48:17.534Z,2.57
2023-01-27T16:50:44.211Z,1.50
2023-01-27T16:53:15.035Z,1.73
2023-01-27T16:55:42.951Z,1.20
2023-01-27T16:58:18.381Z,1.27
2023-01-27T17:00:45.240Z,2.03
2023-01-27T17:03:16.431Z,1.70
2023-01-27T17:05:43.623Z,1.87
2023-01-27T17:08:19.149Z,1.97
2023-01-27T17:10:51.900Z,1.80
2023-01-27T17:13:32.946Z,1.90
2023-01-27T17:16:01.518Z,3.10
2023-01-27T17:18:30.063Z,2.13
2023-01-27T17:20:58.232Z,2.77
2023-01-27T17:23:31.725Z,2.33
2023-01-27T17:26:03.731Z,1.77
2023-01-27T17:28:30.283Z,3.70
2023-01-27T17:31:05.459Z,2.60
2023-01-27T17:33:34.267Z,2.87
2023-01-27T17:36:08.666Z,2.33
2023-01-27T17:38:40.962Z,3.67
2023-01-27T17:41:28.209Z,4.23
2023-01-27T17:43:56.455Z,3.00
2023-01-27T17:46:25.258Z,3.27
2023-01-27T17:48:54.340Z,3.47
2023-01-27T17:51:23.831Z,4.00
2023-01-27T17:53:51.711Z,2.83
2023-01-27T17:56:23.020Z,2.70
2023-01-27T17:58:53.555Z,2.53
2023-01-27T18:01:21.114Z,1.50
2023-01-27T18:03:51.024Z,1.53
2023-01-27T18:06:21.694Z,1.60
2023-01-27T18:08:53.137Z,2.57
2023-01-27T18:11:29.215Z,2.83
2023-01-27T18:13:55.720Z,2.10
2023-01-27T18:16:23.450Z,2.17
2023-01-27T18:18:50.552Z,1.87
2023-01-27T18:21:21.401Z,2.33
2023-01-27T18:23:49.972Z,2.10
2023-01-27T18:26:21.004Z,2.63
2023-01-27T18:28:52.975Z,2.00
2023-01-27T18:31:22.505Z,2.30
2023-01-27T18:33:56.952Z,2.13
2023-01-27T18:36:28.033Z,3.17
2023-01-27T18:38:54.570Z,3.63
2023-01-27T18:41:25.331Z,2.47
2023-01-27T18:43:53.439Z,3.10
2023-01-27T18:46:20.032Z,2.37
2023-01-27T18:48:46.759Z,2.50
2023-01-27T18:51:14.895Z,2.20
2023-01-27T18:53:42.119Z,2.63
2023-01-27T18:56:09.026Z,2.00
2023-01-27T18:58:36.045Z,1.80
2023-01-27T19:01:06.803Z,1.77
2023-01-27T19:03:33.612Z,1.77
2023-01-27T19:06:00.411Z,1.67
2023-01-27T19:08:26.956Z,1.60
2023-01-27T19:10:53.524Z,1.40
2023-01-27T19:13:20.057Z,1.40
2023-01-27T19:15:49.132Z,1.50
2023-01-27T19:18:21.070Z,2.73
2023-01-27T19:20:47.693Z,2.60
2023-01-27T19:23:15.650Z,1.73
2023-01-27T19:25:43.464Z,1.53
2023-01-27T19:28:14.082Z,1.80
2023-01-27T19:30:40.703Z,1.97
2023-01-27T19:33:17.243Z,1.53
2023-01-27T19:35:45.869Z,1.40
2023-01-27T19:38:12.705Z,1.53
2023-01-27T19:40:39.226Z,1.50
2023-01-27T19:43:05.775Z,1.57
2023-01-27T19:45:32.544Z,1.60
2023-01-27T19:47:59.132Z,1.80
2023-01-27T19:50:28.685Z,1.73
2023-01-27T19:52:55.691Z,2.03
2023-01-27T19:55:22.629Z,1.87
2023-01-27T19:57:50.319Z,2.30
2023-01-27T20:00:22.996Z,1.90
2023-01-27T20:02:49.691Z,1.60
2023-01-27T20:05:16.683Z,1.80
2023-01-27T20:07:44.935Z,2.47
2023-01-27T20:10:16.421Z,1.87
2023-01-27T20:12:43.086Z,2.07
2023-01-27T20:15:15.427Z,1.97
2023-01-27T20:17:42.307Z,1.70
2023-01-27T20:20:10.278Z,2.17
2023-01-27T20:22:36.944Z,2.10
2023-01-27T20:25:05.525Z,2.00
2023-01-27T20:27:32.312Z,1.73
2023-01-27T20:29:58.846Z,1.73
2023-01-27T20:32:25.408Z,1.80
2023-01-27T20:34:51.953Z,1.60
2023-01-27T20:37:18.493Z,2.20
2023-01-27T20:39:44.987Z,2.13
2023-01-27T20:42:12.880Z,2.00
2023-01-27T20:44:39.397Z,1.90
2023-01-27T20:47:05.947Z,2.07
2023-01-27T20:49:34.408Z,4.00
2023-01-27T20:52:00.945Z,1.50
2023-01-27T20:54:27.500Z,2.33
2023-01-27T20:56:54.027Z,1.73
2023-01-27T20:59:21.878Z,1.70
2023-01-27T21:01:48.587Z,1.57
2023-01-27T21:04:15.080Z,1.40
2023-01-27T21:06:41.624Z,1.40
2023-01-27T21:09:08.275Z,1.57
2023-01-27T21:11:34.819Z,1.63
2023-01-27T21:14:01.343Z,2.40
2023-01-27T21:16:29.324Z,2.90
2023-01-27T21:18:55.891Z,2.87
2023-01-27T21:21:24.524Z,2.53
2023-01-27T21:23:51.148Z,2.40
2023-01-27T21:26:17.699Z,2.10
2023-01-27T21:28:44.248Z,1.93
2023-01-27T21:31:13.486Z,1.77
2023-01-27T21:33:41.587Z,1.70
2023-01-27T21:36:10.766Z,1.77
2023-01-27T21:38:37.888Z,1.40
2023-01-27T21:41:05.598Z,1.57
2023-01-27T21:43:32.169Z,1.63
2023-01-27T21:45:58.705Z,1.80
2023-01-27T21:48:25.291Z,1.70
2023-01-27T21:50:53.207Z,1.50
2023-01-27T21:53:19.837Z,1.57
2023-01-27T21:55:46.365Z,1.40
2023-01-27T21:58:12.882Z,1.50
2023-01-27T22:00:39.430Z,1.40
2023-01-27T22:03:05.990Z,1.40
2023-01-27T22:05:35.348Z,2.33
2023-01-27T22:08:03.254Z,2.10
2023-01-27T22:10:30.407Z,1.50
2023-01-27T22:12:57.815Z,1.50
2023-01-27T22:15:24.379Z,1.40
2023-01-27T22:17:50.941Z,1.80
2023-01-27T22:20:18.411Z,1.30
2023-01-27T22:22:45.474Z,1.60
2023-01-27T22:25:15.637Z,1.50
2023-01-27T22:27:42.746Z,1.60
2023-01-27T22:30:12.200Z,1.40
2023-01-27T22:32:38.796Z,1.10
2023-01-27T22:35:06.391Z,1.93
2023-01-27T22:37:33.497Z,1.47
2023-01-27T22:39:59.995Z,1.50
2023-01-27T22:42:27.873Z,1.23
2023-01-27T22:44:54.362Z,1.53
2023-01-27T22:47:20.865Z,1.40
2023-01-27T22:49:47.350Z,1.30
2023-01-27T22:52:14.001Z,1.20
2023-01-27T22:54:40.509Z,1.40
2023-01-27T22:57:07.004Z,1.40
2023-01-27T22:59:35.002Z,1.33
2023-01-27T23:02:01.611Z,1.57
2023-01-27T23:04:28.172Z,2.40
2023-01-27T23:06:54.733Z,2.27
2023-01-27T23:09:21.264Z,2.53
2023-01-27T23:11:47.800Z,1.80
2023-01-27T23:14:14.328Z,1.60
2023-01-27T23:16:42.176Z,1.40
2023-01-27T23:19:08.737Z,1.77
2023-01-27T23:21:35.308Z,1.47
2023-01-27T23:24:01.912Z,1.40
2023-01-27T23:26:28.721Z,1.30
2023-01-27T23:28:55.238Z,1.50
2023-01-27T23:31:21.825Z,1.30
2023-01-27T23:33:49.829Z,1.23
2023-01-27T23:36:16.375Z,1.50
2023-01-27T23:38:42.863Z,1.37
2023-01-27T23:41:14.471Z,1.67
2023-01-27T23:43:41.016Z,1.63
2023-01-27T23:46:07.553Z,1.23
2023-01-27T23:48:34.058Z,1.20
2023-01-27T23:51:07.647Z,1.30
2023-01-27T23:53:34.173Z,1.30
2023-01-27T23:56:01.162Z,1.33
2023-01-27T23:58:27.711Z,1.30
